createdAt,value
2018-12-11T00:00:26.007Z,6.53
2018-12-11T00:03:09.782Z,5.47
2018-12-11T00:05:52.926Z,5.57
2018-12-11T00:08:34.064Z,5.13
2018-12-11T00:11:08.432Z,6.13
2018-12-11T00:13:50.270Z,6.93
2018-12-11T00:16:31.483Z,4.27
2018-12-11T00:19:01.756Z,4.00
2018-12-11T00:21:43.338Z,5.60
2018-12-11T00:24:25.745Z,3.10
2018-12-11T00:27:07.440Z,5.50
2018-12-11T00:29:46.563Z,7.83
2018-12-11T00:32:18.954Z,3.67
2018-12-11T00:34:49.095Z,2.13
2018-12-11T00:39:56.919Z,9.10
2018-12-11T00:42:38.462Z,4.97
2018-12-11T00:45:10.961Z,3.47
2018-12-11T00:47:52.448Z,4.43
2018-12-11T00:50:22.138Z,3.47
2018-12-11T00:53:03.721Z,5.83
2018-12-11T00:55:36.102Z,5.73
2018-12-11T00:58:05.844Z,4.13
2018-12-11T01:00:40.658Z,6.30
2018-12-11T01:03:10.711Z,5.50
2018-12-11T01:05:40.780Z,3.23
2018-12-11T01:08:15.880Z,6.47
2018-12-11T01:10:57.262Z,3.63
2018-12-11T01:13:38.268Z,2.17
2018-12-11T01:16:20.126Z,3.53
2018-12-11T01:19:02.063Z,5.47
2018-12-11T01:21:43.118Z,4.83
2018-12-11T01:24:24.118Z,3.17
2018-12-11T01:26:58.427Z,3.13
2018-12-11T01:29:33.325Z,4.93
2018-12-11T01:32:15.126Z,6.10
2018-12-11T01:34:53.495Z,6.83
2018-12-11T01:37:22.923Z,4.40
2018-12-11T01:39:55.126Z,5.13
2018-12-11T01:42:27.291Z,5.30
2018-12-11T01:44:59.194Z,6.10
2018-12-11T01:47:40.558Z,6.30
2018-12-11T01:50:13.058Z,3.00
2018-12-11T01:52:51.634Z,3.77
2018-12-11T01:55:33.404Z,4.23
2018-12-11T01:58:19.330Z,3.73
2018-12-11T02:01:00.456Z,8.20
2018-12-11T02:03:41.538Z,3.50
2018-12-11T02:06:23.487Z,3.20
2018-12-11T02:08:55.107Z,6.63
2018-12-11T02:11:36.592Z,5.33
2018-12-11T02:14:17.706Z,6.77
2018-12-11T02:16:59.764Z,4.23
2018-12-11T02:19:32.207Z,3.03
2018-12-11T02:22:13.972Z,5.03
2018-12-11T02:24:55.928Z,4.90
2018-12-11T02:27:36.998Z,4.77
2018-12-11T02:30:08.647Z,9.40
2018-12-11T02:32:50.228Z,4.57
2018-12-11T02:35:32.798Z,7.50
2018-12-11T02:38:02.799Z,5.93
2018-12-11T02:40:34.661Z,2.30
2018-12-11T02:43:16.309Z,7.40
2018-12-11T02:45:57.243Z,6.07
2018-12-11T02:48:31.592Z,4.77
2018-12-11T02:51:13.164Z,6.30
2018-12-11T02:53:54.195Z,6.20
2018-12-11T02:56:24.548Z,7.20
2018-12-11T02:58:59.703Z,3.90
2018-12-11T03:01:41.326Z,5.30
2018-12-11T03:04:22.631Z,4.27
2018-12-11T03:06:59.906Z,6.50
2018-12-11T03:09:29.994Z,2.37
2018-12-11T03:12:11.280Z,6.43
2018-12-11T03:14:52.493Z,5.47
2018-12-11T03:17:34.543Z,6.60
2018-12-11T03:20:07.114Z,9.30
2018-12-11T03:22:48.491Z,3.40
2018-12-11T03:25:29.640Z,2.50
2018-12-11T03:28:11.566Z,2.53
2018-12-11T03:30:43.202Z,5.70
2018-12-11T03:33:24.830Z,6.50
2018-12-11T03:36:06.048Z,9.87
2018-12-11T03:38:37.776Z,8.17
2018-12-11T03:41:19.579Z,7.17
2018-12-11T03:44:01.231Z,8.87
2018-12-11T03:46:42.375Z,4.67
2018-12-11T03:49:13.952Z,5.83
2018-12-11T03:51:43.897Z,8.27
2018-12-11T03:54:18.606Z,3.43
2018-12-11T03:56:57.756Z,4.53
2018-12-11T03:59:32.753Z,6.23
2018-12-11T04:02:14.314Z,6.17
2018-12-11T04:04:51.410Z,7.97
2018-12-11T04:07:33.377Z,6.07
2018-12-11T04:10:07.296Z,6.83
2018-12-11T04:12:52.520Z,7.37
2018-12-11T04:15:25.766Z,6.70
2018-12-11T04:18:07.734Z,4.13
2018-12-11T04:20:42.902Z,6.23
2018-12-11T04:23:20.071Z,4.53
2018-12-11T04:26:01.651Z,5.83
2018-12-11T04:28:33.388Z,7.03
2018-12-11T04:31:14.619Z,4.33
2018-12-11T04:33:55.795Z,6.57
2018-12-11T04:36:34.288Z,7.17
2018-12-11T04:39:06.526Z,6.63
2018-12-11T04:41:52.765Z,9.40
2018-12-11T04:44:34.755Z,5.13
2018-12-11T04:47:09.854Z,4.10
2018-12-11T04:49:42.274Z,7.17
2018-12-11T04:52:23.535Z,6.60
2018-12-11T04:55:05.483Z,4.90
2018-12-11T04:57:46.481Z,5.97
2018-12-11T05:00:31.738Z,6.13
2018-12-11T05:03:12.818Z,3.67
2018-12-11T05:05:54.034Z,6.33
2018-12-11T05:08:35.918Z,3.77
2018-12-11T05:11:10.364Z,6.53
2018-12-11T05:13:52.147Z,5.40
2018-12-11T05:16:34.090Z,5.77
2018-12-11T05:19:15.883Z,5.83
2018-12-11T05:21:57.022Z,7.30
2018-12-11T05:24:34.163Z,4.27
2018-12-11T05:27:11.182Z,6.23
2018-12-11T05:29:43.320Z,7.10
2018-12-11T05:32:18.226Z,8.33
2018-12-11T05:38:01.196Z,7.47
2018-12-11T05:40:33.538Z,8.93
2018-12-11T05:43:24.448Z,4.47
2018-12-11T05:45:54.372Z,7.83
2018-12-11T05:48:24.262Z,7.07
2018-12-11T05:50:59.898Z,7.57
2018-12-11T05:53:30.097Z,8.87
2018-12-11T05:56:11.251Z,9.23
2018-12-11T05:58:43.226Z,9.47
2018-12-11T06:01:13.875Z,5.23
2018-12-11T06:03:55.710Z,7.70
2018-12-11T06:06:44.120Z,3.67
2018-12-11T06:09:14.181Z,8.50
2018-12-11T06:11:55.746Z,5.13
2018-12-11T06:14:30.795Z,5.77
2018-12-11T06:17:12.904Z,6.70
2018-12-11T06:19:45.414Z,3.97
2018-12-11T06:22:26.939Z,7.57
2018-12-11T06:25:08.943Z,7.47
2018-12-11T06:27:44.133Z,4.83
2018-12-11T06:30:16.351Z,3.73
2018-12-11T06:32:57.814Z,6.77
2018-12-11T06:35:32.312Z,7.70
2018-12-11T06:38:13.871Z,7.53
2018-12-11T06:40:50.114Z,5.53
2018-12-11T06:43:31.766Z,7.23
2018-12-11T06:46:02.159Z,5.80
2018-12-11T06:48:34.126Z,5.93
2018-12-11T06:51:15.755Z,9.80
2018-12-11T06:54:01.599Z,6.03
2018-12-11T06:56:31.289Z,4.37
2018-12-11T06:59:05.974Z,7.50
2018-12-11T07:01:47.585Z,6.90
2018-12-11T07:04:18.074Z,10.03
2018-12-11T07:06:59.522Z,8.10
2018-12-11T07:09:31.042Z,8.93
2018-12-11T07:12:06.103Z,10.77
2018-12-11T07:14:47.945Z,12.40
2018-12-11T07:17:29.876Z,8.30
2018-12-11T07:20:04.900Z,8.30
2018-12-11T07:22:37.491Z,6.20
2018-12-11T07:25:11.886Z,8.47
2018-12-11T07:27:48.088Z,5.80
2018-12-11T07:30:18.387Z,7.40
2018-12-11T07:32:59.843Z,9.03
2018-12-11T07:35:40.895Z,9.40
2018-12-11T07:38:21.889Z,9.23
2018-12-11T07:40:58.984Z,7.67
2018-12-11T07:43:31.362Z,6.27
2018-12-11T07:46:03.548Z,5.97
2018-12-11T07:48:44.974Z,8.93
2018-12-11T07:51:20.242Z,5.87
2018-12-11T07:54:03.247Z,5.20
2018-12-11T07:56:42.283Z,5.43
2018-12-11T07:59:14.473Z,5.33
2018-12-11T08:01:55.802Z,6.53
2018-12-11T08:04:30.318Z,7.73
2018-12-11T08:07:11.810Z,5.27
2018-12-11T08:09:43.407Z,6.37
2018-12-11T08:12:15.458Z,4.30
2018-12-11T08:14:57.095Z,8.27
2018-12-11T08:17:38.967Z,6.87
2018-12-11T08:20:14.235Z,8.10
2018-12-11T08:22:49.425Z,7.83
2018-12-11T08:25:31.231Z,10.33
2018-12-11T08:28:06.322Z,7.60
2018-12-11T08:30:38.826Z,6.90
2018-12-11T08:33:20.107Z,5.57
2018-12-11T08:35:55.298Z,6.77
2018-12-11T08:38:36.970Z,7.63
2018-12-11T08:41:19.242Z,8.67
2018-12-11T08:44:01.036Z,7.60
2018-12-11T08:46:33.922Z,6.20
2018-12-11T08:49:06.004Z,7.37
2018-12-11T08:51:36.009Z,4.60
2018-12-11T08:54:10.849Z,7.37
2018-12-11T08:56:45.807Z,6.80
2018-12-11T08:59:18.011Z,10.87
2018-12-11T09:01:50.181Z,9.93
2018-12-11T09:04:21.826Z,8.97
2018-12-11T09:07:03.169Z,6.67
2018-12-11T09:09:34.875Z,7.60
2018-12-11T09:12:16.624Z,8.60
2018-12-11T09:14:51.095Z,6.20
2018-12-11T09:17:32.741Z,2.93
2018-12-11T09:20:05.136Z,9.23
2018-12-11T09:22:46.646Z,8.23
2018-12-11T09:25:21.825Z,5.33
2018-12-11T09:27:56.880Z,6.97
2018-12-11T09:30:29.559Z,5.93
2018-12-11T09:33:05.931Z,4.93
2018-12-11T09:35:38.939Z,4.63
2018-12-11T09:38:14.150Z,7.37
2018-12-11T09:40:46.176Z,5.10
2018-12-11T09:43:15.963Z,8.33
2018-12-11T09:45:57.454Z,5.77
2018-12-11T09:48:38.482Z,3.80
2018-12-11T09:51:17.836Z,8.90
2018-12-11T09:53:55.160Z,6.93
2018-12-11T09:56:27.751Z,7.45
2018-12-11T09:59:02.679Z,7.83
2018-12-11T10:01:32.659Z,10.57
2018-12-11T10:04:08.556Z,4.17
2018-12-11T10:06:40.415Z,5.30
2018-12-11T10:09:12.643Z,5.05
2018-12-11T10:11:44.753Z,4.30
2018-12-11T10:14:23.458Z,6.15
2018-12-11T10:16:53.913Z,5.13
2018-12-11T10:19:25.861Z,7.47
2018-12-11T10:22:07.399Z,5.67
2018-12-11T10:24:49.346Z,3.83
2018-12-11T10:35:06.871Z,5.27
2018-12-11T10:37:48.331Z,8.80
2018-12-11T10:50:46.234Z,4.63
2018-12-11T10:53:27.630Z,7.70
2018-12-11T10:56:08.866Z,5.00
2018-12-11T10:58:50.551Z,7.13
2018-12-11T11:01:22.207Z,6.97
2018-12-11T11:03:56.594Z,7.50
2018-12-11T11:06:27.098Z,5.17
2018-12-11T11:08:58.882Z,7.58
2018-12-11T11:11:41.936Z,7.47
2018-12-11T11:14:14.229Z,6.67
2018-12-11T11:16:44.314Z,10.37
2018-12-11T11:19:16.311Z,6.50
2018-12-11T11:21:57.990Z,6.60
2018-12-11T11:24:39.898Z,6.42
2018-12-11T11:27:21.035Z,7.17
2018-12-11T11:29:56.170Z,5.72
2018-12-11T11:32:31.119Z,4.97
2018-12-11T11:35:06.204Z,7.00
2018-12-11T11:37:42.548Z,7.30
2018-12-11T11:40:15.024Z,4.80
2018-12-11T11:42:56.511Z,5.83
2018-12-11T11:45:38.327Z,6.62
2018-12-11T11:51:09.722Z,4.47
2018-12-11T11:53:51.202Z,8.50
2018-12-11T11:56:33.134Z,5.57
2018-12-11T11:59:05.620Z,5.33
2018-12-11T12:01:47.228Z,3.05
2018-12-11T12:04:29.099Z,5.83
2018-12-11T12:17:21.815Z,6.12
2018-12-11T12:19:56.124Z,6.75
2018-12-11T12:22:37.761Z,6.25
2018-12-11T12:25:12.978Z,5.45
2018-12-11T12:27:48.452Z,6.08
2018-12-11T12:30:23.260Z,6.95
2018-12-11T12:32:55.507Z,7.15
2018-12-11T12:35:36.903Z,6.10
2018-12-11T12:38:07.438Z,4.72
2018-12-11T12:40:39.558Z,8.23
2018-12-11T12:43:25.162Z,9.48
2018-12-11T12:46:07.089Z,5.05
2018-12-11T12:48:48.127Z,4.92
2018-12-11T12:51:23.515Z,7.92
2018-12-11T12:53:58.967Z,8.38
2018-12-11T12:56:40.873Z,10.53
2018-12-11T12:59:18.204Z,8.68
2018-12-11T13:01:50.603Z,4.80
2018-12-11T13:04:25.286Z,8.75
2018-12-11T13:07:06.883Z,5.57
2018-12-11T13:09:39.378Z,8.90
2018-12-11T13:12:28.639Z,8.65
2018-12-11T13:15:09.969Z,7.00
2018-12-11T13:17:51.146Z,5.35
2018-12-11T13:20:23.507Z,5.40
2018-12-11T13:23:05.045Z,5.87
2018-12-11T13:25:46.929Z,5.95
2018-12-11T13:28:27.930Z,6.72
2018-12-11T13:31:06.414Z,4.30
2018-12-11T13:36:36.359Z,4.08
2018-12-11T13:39:17.807Z,2.72
2018-12-11T13:41:48.214Z,2.75
2018-12-11T13:44:20.348Z,12.40
2018-12-11T13:46:50.549Z,4.83
2018-12-11T13:49:23.118Z,3.65
2018-12-11T13:51:58.204Z,5.37
2018-12-11T13:54:39.892Z,4.30
2018-12-11T13:57:21.798Z,6.83
2018-12-11T13:59:53.478Z,9.53
2018-12-11T14:02:25.580Z,6.13
2018-12-11T14:05:06.897Z,4.28
2018-12-11T14:07:48.042Z,6.05
2018-12-11T14:10:19.679Z,4.05
2018-12-11T14:13:03.212Z,7.33
2018-12-11T14:15:44.374Z,6.58
2018-12-11T14:18:14.948Z,4.05
2018-12-11T14:20:47.063Z,7.30
2018-12-11T14:23:28.755Z,8.00
2018-12-11T14:26:03.105Z,9.08
2018-12-11T14:28:38.058Z,8.70
2018-12-11T14:31:16.983Z,9.78
2018-12-11T14:33:56.163Z,8.30
2018-12-11T14:36:37.583Z,9.28
2018-12-11T14:39:12.921Z,9.30
2018-12-11T14:41:54.893Z,7.28
2018-12-11T14:44:34.946Z,5.87
2018-12-11T14:47:07.280Z,8.58
2018-12-11T14:49:39.495Z,8.60
2018-12-11T14:52:20.874Z,10.13
2018-12-11T14:55:02.852Z,9.63
2018-12-11T14:57:38.316Z,12.50
2018-12-11T15:00:13.150Z,10.90
2018-12-11T15:02:45.684Z,8.13
2018-12-11T15:05:32.805Z,8.85
2018-12-11T15:08:25.131Z,8.33
2018-12-11T15:11:00.303Z,8.00
2018-12-11T15:13:41.612Z,9.03
2018-12-11T15:16:17.039Z,5.75
2018-12-11T15:18:50.225Z,10.93
2018-12-11T15:21:27.482Z,10.15
2018-12-11T15:23:58.057Z,13.25
2018-12-11T15:26:32.755Z,7.10
2018-12-11T15:29:04.892Z,10.70
2018-12-11T15:31:39.990Z,10.50
2018-12-11T15:34:21.201Z,11.97
2018-12-11T15:37:02.567Z,12.68
2018-12-11T15:39:35.989Z,12.63
2018-12-11T15:42:06.688Z,10.60
2018-12-11T15:44:48.247Z,9.23
2018-12-11T15:47:30.227Z,12.58
2018-12-11T15:50:06.219Z,12.05
2018-12-11T15:52:47.266Z,15.65
2018-12-11T15:57:34.315Z,9.50
2018-12-11T16:00:23.318Z,11.03
2018-12-11T16:02:58.944Z,10.30
2018-12-11T16:05:36.023Z,11.45
2018-12-11T16:08:13.015Z,7.78
2018-12-11T16:10:49.178Z,7.08
2018-12-11T16:13:28.297Z,3.95
2018-12-11T16:16:04.968Z,5.20
2018-12-11T16:18:40.936Z,5.73
2018-12-11T16:21:16.792Z,5.60
2018-12-11T16:23:53.593Z,4.45
2018-12-11T16:26:28.808Z,6.13
2018-12-11T16:29:03.639Z,8.70
2018-12-11T16:31:48.369Z,7.63
2018-12-11T16:34:25.439Z,7.57
2018-12-11T16:37:02.609Z,9.13
2018-12-11T16:39:44.920Z,10.53
2018-12-11T16:42:37.495Z,8.57
2018-12-11T16:48:27.977Z,9.50
2018-12-11T17:00:19.370Z,11.47
2018-12-11T17:02:54.843Z,10.13
2018-12-11T17:05:33.426Z,12.03
2018-12-11T17:08:08.054Z,12.10
2018-12-11T17:10:44.188Z,13.23
2018-12-11T17:13:20.227Z,16.20
2018-12-11T17:15:52.608Z,13.37
2018-12-11T17:18:28.054Z,12.40
2018-12-11T17:21:04.493Z,13.63
2018-12-11T17:23:39.991Z,13.40
2018-12-11T17:26:16.054Z,20.83
2018-12-11T17:28:51.086Z,15.40
2018-12-11T17:31:27.982Z,14.73
2018-12-11T17:34:04.063Z,15.17
2018-12-11T17:36:40.261Z,19.53
2018-12-11T17:42:28.138Z,14.93
2018-12-11T17:45:05.219Z,15.63
2018-12-11T17:50:45.131Z,15.27
2018-12-11T17:53:20.283Z,16.83
2018-12-11T17:55:55.000Z,15.17
2018-12-11T17:58:30.740Z,15.07
2018-12-11T18:01:08.402Z,12.80
2018-12-11T18:03:44.531Z,15.70
2018-12-11T18:06:20.796Z,15.70
2018-12-11T18:12:04.265Z,13.87
2018-12-11T18:14:40.224Z,11.90
2018-12-11T18:17:17.358Z,11.87
2018-12-11T18:19:53.213Z,11.70
2018-12-11T18:22:29.137Z,11.50
2018-12-11T18:25:05.002Z,9.90
2018-12-11T18:27:41.879Z,11.57
2018-12-11T18:30:17.678Z,10.73
2018-12-11T18:33:00.389Z,12.00
2018-12-11T18:41:47.395Z,12.30
2018-12-11T18:44:23.399Z,11.20
2018-12-11T18:47:00.809Z,11.00
2018-12-11T18:49:37.153Z,11.17
2018-12-11T18:52:15.940Z,10.97
2018-12-11T18:57:56.031Z,10.33
2018-12-11T19:00:31.977Z,13.80
2018-12-11T19:03:07.114Z,15.33
2018-12-11T19:05:43.781Z,15.17
2018-12-11T19:08:20.779Z,13.80
2018-12-11T19:11:03.302Z,15.07
2018-12-11T19:53:28.266Z,16.93
2018-12-11T19:56:09.739Z,13.17
2018-12-11T19:58:41.546Z,11.77
2018-12-11T20:01:22.950Z,13.73
2018-12-11T20:04:05.478Z,14.73
2018-12-11T20:06:46.944Z,15.13
2018-12-11T20:09:28.224Z,14.67
2018-12-11T20:12:09.935Z,17.07
2018-12-11T20:14:56.731Z,17.13
2018-12-11T20:17:29.723Z,14.47
2018-12-11T20:20:11.379Z,16.37
2018-12-11T20:22:53.187Z,13.17
2018-12-11T20:25:34.342Z,18.27
2018-12-11T20:28:15.342Z,14.40
2018-12-11T20:30:50.623Z,17.17
2018-12-11T20:33:32.814Z,14.53
2018-12-11T20:36:07.028Z,15.47
2018-12-11T20:38:39.828Z,16.77
2018-12-11T20:41:25.717Z,16.73
2018-12-11T20:44:00.994Z,16.53
2018-12-11T20:46:42.716Z,18.80
2018-12-11T20:49:14.399Z,17.77
2018-12-11T20:51:55.810Z,20.20
2018-12-11T20:57:44.946Z,19.37
2018-12-11T21:00:23.946Z,17.53
2018-12-11T21:02:59.974Z,20.00
2018-12-11T21:05:41.347Z,22.23
2018-12-11T21:08:22.389Z,18.10
2018-12-11T21:11:04.349Z,17.00
2018-12-11T21:13:38.703Z,19.63
2018-12-11T21:16:20.200Z,15.87
2018-12-11T21:18:51.062Z,17.60
2018-12-11T21:21:33.587Z,19.73
2018-12-11T21:24:03.786Z,16.73
2018-12-11T21:26:38.288Z,16.33
2018-12-11T21:29:08.990Z,18.73
2018-12-11T21:31:47.478Z,18.37
2018-12-11T21:34:29.033Z,20.43
2018-12-11T21:37:09.987Z,16.47
2018-12-11T21:39:45.698Z,21.23
2018-12-11T21:42:26.991Z,16.20
2018-12-11T21:45:04.535Z,17.70
2018-12-11T21:47:39.245Z,18.87
2018-12-11T21:50:09.707Z,16.67
2018-12-11T21:52:46.439Z,15.03
2018-12-11T21:55:19.635Z,14.23
2018-12-11T21:58:01.646Z,15.80
2018-12-11T22:00:34.063Z,18.73
2018-12-11T22:03:09.346Z,19.27
2018-12-11T22:05:44.501Z,13.70
2018-12-11T22:08:21.286Z,13.13
2018-12-11T22:11:03.037Z,15.37
2018-12-11T22:13:44.827Z,15.87
2018-12-11T22:16:34.762Z,14.50
2018-12-11T22:19:06.402Z,12.70
2018-12-11T22:21:45.238Z,15.33
2018-12-11T22:24:26.578Z,14.70
2018-12-11T22:27:00.965Z,14.37
2018-12-11T22:29:33.295Z,15.53
2018-12-11T22:32:07.958Z,17.30
2018-12-11T22:34:43.127Z,17.00
2018-12-11T22:37:15.804Z,16.33
2018-12-11T22:39:47.854Z,16.80
2018-12-11T22:42:22.737Z,17.47
2018-12-11T22:45:01.771Z,17.07
2018-12-11T22:47:34.411Z,16.23
2018-12-11T22:50:09.170Z,15.93
2018-12-11T22:52:50.926Z,16.93
2018-12-11T22:55:26.038Z,18.87
2018-12-11T22:58:11.994Z,17.43
2018-12-11T23:00:50.579Z,16.53
2018-12-11T23:03:34.506Z,15.00
2018-12-11T23:06:16.245Z,17.07
2018-12-11T23:08:51.503Z,17.70
2018-12-11T23:11:33.471Z,15.47
2018-12-11T23:14:12.368Z,14.20
2018-12-11T23:16:48.246Z,15.03
2018-12-11T23:19:23.355Z,15.17
2018-12-11T23:22:04.928Z,14.33
2018-12-11T23:24:46.967Z,14.80
2018-12-11T23:27:29.662Z,18.27
2018-12-11T23:30:01.395Z,14.87
2018-12-11T23:32:45.111Z,13.70
2018-12-11T23:35:20.856Z,14.87
2018-12-11T23:38:02.022Z,15.50
2018-12-11T23:40:37.419Z,16.43
2018-12-11T23:43:18.675Z,13.87
2018-12-11T23:46:03.322Z,14.60
2018-12-11T23:51:36.620Z,14.00
2018-12-11T23:54:23.329Z,14.57
2018-12-11T23:56:59.198Z,14.23
2018-12-11T23:59:35.769Z,13.97
